Time;durP1;ratioP1;P1;durP2;ratioP2;P2;SDS_P1;SDS_P2;PMS_P1;PMS_P2;Temp;Humidity;BMP_temperature;BMP_pressure;BME280_temperature;BME280_humidity;BME280_pressure;Samples;Min_cycle;Max_cycle;Signal;HPM_P1;HPM_P2
2022/10/02 00:02:01;;;;;;;177.25;166.75;;;12.00;99.90;;;;;;5045901;28;20399;-63
2022/10/02 00:04:36;;;;;;;151.30;142.25;;;12.00;99.90;;;;;;5050356;28;20618;-61
2022/10/02 00:07:05;;;;;;;150.90;142.10;;;12.00;99.90;;;;;;5049010;28;20407;-63
2022/10/02 00:09:37;;;;;;;133.25;125.15;;;12.00;99.90;;;;;;5049033;28;20455;-64
2022/10/02 00:12:07;;;;;;;131.35;122.85;;;12.10;99.90;;;;;;5049551;28;20859;-62
2022/10/02 00:14:38;;;;;;;163.43;153.45;;;12.00;99.90;;;;;;5048637;28;20386;-63
2022/10/02 00:17:08;;;;;;;137.98;129.73;;;12.00;99.90;;;;;;5047127;28;20858;-63
2022/10/02 00:19:34;;;;;;;151.50;142.38;;;12.00;99.90;;;;;;5047552;28;20379;-63
2022/10/02 00:22:10;;;;;;;146.57;137.87;;;12.10;99.90;;;;;;5046997;28;20406;-63
2022/10/02 00:24:48;;;;;;;154.57;145.05;;;12.10;99.90;;;;;;5050052;28;20409;-63
2022/10/02 00:27:44;;;;;;;156.43;146.88;;;12.10;99.90;;;;;;5051083;28;20423;-61
2022/10/02 00:30:14;;;;;;;161.30;151.82;;;12.10;99.90;;;;;;5050875;28;20386;-62
2022/10/02 00:33:11;;;;;;;168.40;158.48;;;12.10;99.90;;;;;;5050012;28;20416;-59
2022/10/02 00:35:46;;;;;;;154.80;145.98;;;12.10;99.90;;;;;;5044497;28;20660;-61
2022/10/02 00:38:48;;;;;;;179.40;168.68;;;12.00;99.90;;;;;;5048935;28;20809;-61
2022/10/02 00:41:14;;;;;;;155.43;145.98;;;12.10;99.90;;;;;;5048643;28;20421;-62
2022/10/02 00:43:59;;;;;;;174.82;164.35;;;12.10;99.90;;;;;;5049118;28;20421;-62
2022/10/02 00:46:33;;;;;;;145.63;136.88;;;12.10;99.90;;;;;;5046961;28;20419;-62
2022/10/02 00:49:20;;;;;;;136.63;128.45;;;12.10;99.90;;;;;;5049691;28;20381;-62
2022/10/02 00:51:59;;;;;;;161.95;152.23;;;12.10;99.90;;;;;;5051391;28;20393;-61
2022/10/02 00:54:55;;;;;;;154.90;145.82;;;12.10;99.90;;;;;;5050768;28;20389;-61
2022/10/02 00:57:36;;;;;;;149.95;141.27;;;12.10;99.90;;;;;;5048788;28;20447;-62
2022/10/02 01:00:17;;;;;;;153.77;145.05;;;12.10;99.90;;;;;;5049259;28;20676;-61
2022/10/02 01:03:22;;;;;;;148.43;139.50;;;12.20;99.90;;;;;;5048954;28;20384;-62
2022/10/02 01:05:48;;;;;;;141.80;133.68;;;12.20;99.90;;;;;;5047650;28;20801;-62
2022/10/02 01:08:15;;;;;;;156.27;146.65;;;12.10;99.90;;;;;;5047329;28;20489;-61
2022/10/02 01:10:41;;;;;;;146.77;138.23;;;12.10;99.90;;;;;;5047546;28;20397;-62
2022/10/02 01:13:08;;;;;;;123.55;116.38;;;12.10;99.90;;;;;;5048791;28;20389;-62
2022/10/02 01:15:44;;;;;;;136.60;128.23;;;12.10;99.90;;;;;;5049459;28;20452;-62
2022/10/02 01:18:12;;;;;;;140.52;132.48;;;12.10;99.90;;;;;;5048474;28;20405;-61
2022/10/02 01:20:45;;;;;;;128.48;120.88;;;12.10;99.90;;;;;;5048236;28;20494;-62
2022/10/02 01:23:28;;;;;;;147.02;138.63;;;12.10;99.90;;;;;;5049620;28;20421;-62
2022/10/02 01:25:54;;;;;;;137.30;129.03;;;12.10;99.90;;;;;;5049100;28;20443;-62
2022/10/02 01:28:21;;;;;;;136.23;128.33;;;12.20;99.90;;;;;;5048962;28;20789;-62
2022/10/02 01:30:50;;;;;;;126.55;119.45;;;12.20;99.90;;;;;;5050610;28;20393;-62
2022/10/02 01:33:16;;;;;;;123.15;116.20;;;12.20;99.90;;;;;;5051802;28;20417;-62
2022/10/02 01:35:42;;;;;;;113.85;107.57;;;12.30;99.90;;;;;;5052000;28;20401;-62
2022/10/02 01:38:12;;;;;;;108.85;102.93;;;12.30;99.90;;;;;;5052582;28;20413;-62
2022/10/02 01:40:39;;;;;;;101.43;95.85;;;12.40;99.90;;;;;;5052645;28;20476;-62
2022/10/02 01:43:13;;;;;;;104.38;98.35;;;12.40;99.90;;;;;;5049715;28;20425;-62
2022/10/02 01:45:45;;;;;;;128.82;121.32;;;12.40;99.90;;;;;;5049632;28;20450;-62
2022/10/02 01:48:14;;;;;;;119.18;112.15;;;12.30;99.90;;;;;;5048312;28;20397;-62
2022/10/02 01:51:25;;;;;;;110.65;104.22;;;12.30;99.90;;;;;;5049457;28;20424;-63
2022/10/02 01:54:14;;;;;;;118.45;111.63;;;12.30;99.90;;;;;;5052900;28;20381;-62
2022/10/02 01:56:49;;;;;;;131.25;123.50;;;12.20;99.90;;;;;;5052975;28;20408;-62
2022/10/02 01:59:30;;;;;;;134.27;126.60;;;12.20;99.90;;;;;;5055477;28;20478;-62
2022/10/02 02:02:33;;;;;;;107.75;101.28;;;12.20;99.90;;;;;;5056611;28;20377;-62
2022/10/02 02:05:23;;;;;;;132.23;124.60;;;12.10;99.90;;;;;;5055294;28;20390;-62
2022/10/02 02:08:07;;;;;;;128.50;121.30;;;12.10;99.90;;;;;;5053847;28;20460;-62
2022/10/02 02:10:39;;;;;;;123.07;115.60;;;12.10;99.90;;;;;;5052968;28;20385;-60
2022/10/02 02:13:13;;;;;;;128.10;120.55;;;12.00;99.90;;;;;;5053394;28;20389;-61
2022/10/02 02:16:00;;;;;;;137.70;129.70;;;12.00;99.90;;;;;;5052398;28;20747;-61
2022/10/02 02:18:42;;;;;;;149.52;141.13;;;11.90;99.90;;;;;;5052383;28;20681;-61
2022/10/02 02:21:37;;;;;;;139.43;131.10;;;11.90;99.90;;;;;;5052837;28;20483;-61
2022/10/02 02:24:10;;;;;;;143.55;135.50;;;11.90;99.90;;;;;;5051152;28;20812;-62
2022/10/02 02:26:37;;;;;;;150.85;141.85;;;11.90;99.90;;;;;;5051877;28;20416;-62
2022/10/02 02:29:07;;;;;;;128.15;120.72;;;11.90;99.90;;;;;;5052214;28;20385;-60
2022/10/02 02:31:40;;;;;;;130.25;122.68;;;11.90;99.90;;;;;;5051264;28;20399;-59
2022/10/02 02:34:11;;;;;;;145.93;137.38;;;11.80;99.90;;;;;;5052863;28;20725;-61
2022/10/02 02:36:42;;;;;;;166.27;156.88;;;11.80;99.90;;;;;;5052502;28;20902;-63
2022/10/02 02:39:46;;;;;;;142.20;134.27;;;11.80;99.90;;;;;;5056105;28;20781;-62
2022/10/02 02:42:14;;;;;;;126.13;119.17;;;11.80;99.90;;;;;;5023658;28;20411;-61
2022/10/02 02:44:56;;;;;;;144.52;136.40;;;11.80;99.90;;;;;;5055857;28;20792;-62
2022/10/02 02:47:31;;;;;;;121.25;114.03;;;11.80;99.90;;;;;;5057329;28;20409;-61
2022/10/02 02:50:02;;;;;;;132.47;125.37;;;11.80;99.90;;;;;;5056645;28;20724;-62
2022/10/02 02:52:45;;;;;;;137.65;129.55;;;11.80;99.90;;;;;;5055216;28;20412;-62
2022/10/02 02:55:48;;;;;;;119.60;112.80;;;11.80;99.90;;;;;;5037887;28;20406;-61
2022/10/02 02:58:27;;;;;;;115.85;108.97;;;11.80;99.90;;;;;;5043827;28;20487;-61
2022/10/02 03:00:52;;;;;;;131.68;124.35;;;11.70;99.90;;;;;;5053949;28;20682;-62
2022/10/02 03:03:18;;;;;;;123.87;116.80;;;11.80;99.90;;;;;;5052263;28;20410;-61
2022/10/02 03:05:48;;;;;;;122.03;114.60;;;11.80;99.90;;;;;;5051598;28;20401;-61
2022/10/02 03:08:30;;;;;;;101.78;96.03;;;11.80;99.90;;;;;;5053648;28;20385;-61
2022/10/02 03:11:15;;;;;;;118.90;112.35;;;11.80;99.90;;;;;;5052066;28;20543;-59
2022/10/02 03:13:50;;;;;;;118.90;112.00;;;11.90;99.90;;;;;;5051397;28;20377;-61
2022/10/02 03:16:37;;;;;;;117.43;110.70;;;11.80;99.90;;;;;;5051997;28;20389;-61
2022/10/02 03:19:05;;;;;;;115.53;109.07;;;11.80;99.90;;;;;;5051368;28;20815;-62
2022/10/02 03:22:11;;;;;;;126.15;119.03;;;11.80;99.90;;;;;;5050617;28;20401;-62
2022/10/02 03:24:44;;;;;;;104.85;99.15;;;11.80;99.90;;;;;;5048472;28;20723;-63
2022/10/02 03:27:33;;;;;;;121.43;114.63;;;11.90;99.90;;;;;;5051116;28;20476;-64
2022/10/02 03:30:06;;;;;;;109.55;103.25;;;11.90;99.90;;;;;;5051461;28;20537;-63
2022/10/02 03:32:34;;;;;;;103.10;97.20;;;11.90;99.90;;;;;;5051083;28;20488;-63
2022/10/02 03:35:01;;;;;;;110.28;104.15;;;11.90;99.90;;;;;;5051889;28;20419;-63
2022/10/02 03:37:27;;;;;;;109.75;103.85;;;11.90;99.90;;;;;;5052357;28;20421;-63
2022/10/02 03:39:59;;;;;;;95.43;90.28;;;11.90;99.90;;;;;;5054156;28;20381;-61
2022/10/02 03:42:32;;;;;;;90.97;86.10;;;12.00;99.90;;;;;;5053984;28;20412;-63
2022/10/02 03:44:57;;;;;;;80.43;75.53;;;12.00;99.90;;;;;;5052861;28;20377;-63
2022/10/02 03:47:23;;;;;;;76.90;72.57;;;12.00;99.90;;;;;;5053748;28;20392;-63
2022/10/02 03:49:48;;;;;;;79.90;75.15;;;12.00;99.90;;;;;;5052661;28;20674;-62
2022/10/02 03:52:17;;;;;;;77.53;72.93;;;12.00;99.90;;;;;;5053708;28;20401;-62
2022/10/02 03:54:43;;;;;;;76.32;72.20;;;12.00;99.90;;;;;;5052808;28;20389;-61
2022/10/02 03:57:18;;;;;;;84.03;78.93;;;12.00;99.90;;;;;;5054289;28;20900;-63
2022/10/02 03:59:47;;;;;;;74.88;70.50;;;11.90;99.90;;;;;;5051650;28;20678;-63
2022/10/02 04:02:40;;;;;;;103.63;97.50;;;11.90;99.90;;;;;;5050899;28;20473;-63
2022/10/02 04:05:12;;;;;;;93.00;87.25;;;11.90;99.90;;;;;;5050021;28;20457;-62
2022/10/02 04:07:42;;;;;;;96.50;90.72;;;11.80;99.90;;;;;;5049726;28;20397;-60
2022/10/02 04:10:29;;;;;;;121.80;114.55;;;11.80;99.90;;;;;;5051434;28;20377;-62
2022/10/02 04:13:06;;;;;;;108.75;102.53;;;11.70;99.90;;;;;;5050100;28;20388;-61
2022/10/02 04:16:06;;;;;;;105.00;99.00;;;11.70;99.90;;;;;;5050081;28;20463;-60
2022/10/02 04:18:38;;;;;;;103.05;97.40;;;11.70;99.90;;;;;;5048730;28;20393;-61
2022/10/02 04:21:25;;;;;;;110.65;104.22;;;11.70;99.90;;;;;;5046800;28;20795;-60
2022/10/02 04:24:19;;;;;;;105.57;99.57;;;11.70;99.90;;;;;;5044039;28;20392;-61
2022/10/02 04:26:59;;;;;;;98.82;93.30;;;11.70;99.90;;;;;;5045700;28;20480;-60
2022/10/02 04:29:31;;;;;;;91.43;86.50;;;11.80;99.90;;;;;;5048068;28;20388;-60
2022/10/02 04:32:15;;;;;;;96.23;90.93;;;11.80;99.90;;;;;;5048738;28;20377;-61
2022/10/02 04:34:41;;;;;;;96.37;90.70;;;11.80;99.90;;;;;;5054575;28;20382;-62
2022/10/02 04:37:25;;;;;;;104.10;98.18;;;11.70;99.90;;;;;;5052410;28;20426;-62
2022/10/02 04:40:28;;;;;;;103.07;97.13;;;11.70;99.90;;;;;;5050249;28;20393;-61
2022/10/02 04:43:21;;;;;;;106.45;100.47;;;11.60;99.90;;;;;;5050824;28;20543;-62
2022/10/02 04:46:02;;;;;;;92.32;87.03;;;11.70;99.90;;;;;;5050907;28;20724;-62
2022/10/02 04:48:56;;;;;;;94.38;89.13;;;11.70;99.90;;;;;;5048326;28;20688;-61
2022/10/02 04:51:40;;;;;;;120.70;113.57;;;11.60;99.90;;;;;;5048406;28;20410;-62
2022/10/02 04:54:37;;;;;;;105.88;99.93;;;11.60;99.90;;;;;;5044715;28;20400;-62
2022/10/02 04:57:15;;;;;;;116.17;109.27;;;11.70;99.90;;;;;;5045896;28;20477;-62
2022/10/02 05:00:05;;;;;;;113.07;106.63;;;11.60;99.90;;;;;;5045397;28;20377;-61
2022/10/02 05:02:49;;;;;;;98.65;92.95;;;11.60;99.90;;;;;;5046027;28;20428;-62
2022/10/02 05:05:39;;;;;;;110.65;104.35;;;11.60;99.90;;;;;;5045661;28;20732;-62
2022/10/02 05:08:33;;;;;;;108.93;102.75;;;11.60;99.90;;;;;;5044537;28;20400;-62
2022/10/02 05:11:18;;;;;;;110.53;104.40;;;11.70;99.90;;;;;;5043478;28;20620;-61
2022/10/02 05:13:56;;;;;;;105.28;98.97;;;11.60;99.90;;;;;;5044436;28;20409;-62
2022/10/02 05:16:31;;;;;;;120.32;113.32;;;11.70;99.90;;;;;;5042236;28;20778;-61
2022/10/02 05:19:11;;;;;;;118.90;112.20;;;11.70;99.90;;;;;;5041727;28;20820;-62
2022/10/02 05:21:59;;;;;;;129.32;121.90;;;11.70;99.90;;;;;;5040689;28;20742;-62
2022/10/02 05:24:42;;;;;;;122.57;115.47;;;11.70;99.90;;;;;;5041621;28;20392;-62
2022/10/02 05:27:28;;;;;;;124.30;116.85;;;11.70;99.90;;;;;;5043360;28;20458;-62
2022/10/02 05:30:14;;;;;;;129.55;121.93;;;11.60;99.90;;;;;;5045415;28;20390;-62
2022/10/02 05:33:18;;;;;;;131.85;124.03;;;11.60;99.90;;;;;;5047663;28;20635;-62
2022/10/02 05:36:23;;;;;;;134.93;127.10;;;11.60;99.90;;;;;;5048750;28;20481;-62
2022/10/02 05:39:02;;;;;;;131.10;123.32;;;11.60;99.90;;;;;;5049669;28;21452;-61
2022/10/02 05:41:35;;;;;;;129.52;121.95;;;11.70;99.90;;;;;;5051513;28;20444;-60
2022/10/02 05:44:13;;;;;;;128.60;121.28;;;11.70;99.90;;;;;;5050661;28;20393;-62
2022/10/02 05:46:54;;;;;;;136.57;128.75;;;11.60;99.90;;;;;;5049411;28;20417;-61
2022/10/02 05:50:05;;;;;;;134.82;126.90;;;11.70;99.90;;;;;;5048376;28;20595;-61
2022/10/02 05:53:02;;;;;;;137.50;129.60;;;11.60;99.90;;;;;;5040721;28;20389;-61
2022/10/02 05:55:27;;;;;;;142.02;134.00;;;11.60;99.90;;;;;;5044425;28;20606;-61
2022/10/02 05:58:11;;;;;;;136.27;128.40;;;11.60;99.90;;;;;;5043683;28;20496;-62
2022/10/02 06:00:59;;;;;;;143.80;135.52;;;11.60;99.90;;;;;;5042792;28;20373;-59
2022/10/02 06:03:47;;;;;;;134.05;126.50;;;11.70;99.90;;;;;;5041480;28;20422;-62
2022/10/02 06:06:35;;;;;;;146.73;138.45;;;11.70;99.90;;;;;;5039405;28;20397;-62
2022/10/02 06:09:15;;;;;;;139.52;131.57;;;11.70;99.90;;;;;;5039749;28;20389;-61
2022/10/02 06:11:51;;;;;;;136.32;128.48;;;11.70;99.90;;;;;;5038747;28;20624;-62
2022/10/02 06:14:35;;;;;;;149.60;141.00;;;11.70;99.90;;;;;;5038455;28;20393;-62
2022/10/02 06:17:09;;;;;;;150.32;141.63;;;11.60;99.90;;;;;;5040879;28;20484;-61
2022/10/02 06:19:51;;;;;;;151.10;142.53;;;11.60;99.90;;;;;;5039364;28;20392;-61
2022/10/02 06:22:32;;;;;;;166.38;156.57;;;11.60;99.90;;;;;;5039132;28;20647;-62
2022/10/02 06:25:12;;;;;;;138.17;130.33;;;11.60;99.90;;;;;;5042693;28;20777;-60
2022/10/02 06:27:44;;;;;;;135.13;127.37;;;11.60;99.90;;;;;;5043648;28;20385;-61
2022/10/02 06:30:13;;;;;;;129.38;122.20;;;11.70;99.90;;;;;;5043144;28;20380;-62
2022/10/02 06:33:13;;;;;;;129.70;122.37;;;11.70;99.90;;;;;;5040023;28;20671;-62
2022/10/02 06:36:10;;;;;;;118.80;111.63;;;11.70;99.90;;;;;;5042074;28;20776;-62
2022/10/02 06:39:14;;;;;;;111.00;104.57;;;11.80;99.90;;;;;;5039550;28;20413;-62
2022/10/02 06:42:13;;;;;;;113.07;106.47;;;11.70;99.90;;;;;;5046962;28;20441;-62
2022/10/02 06:45:09;;;;;;;100.25;94.32;;;11.70;99.90;;;;;;5044185;28;20809;-62
2022/10/02 06:47:50;;;;;;;101.28;95.47;;;11.70;99.90;;;;;;5043450;28;20381;-63
2022/10/02 06:50:37;;;;;;;93.30;88.07;;;11.70;99.90;;;;;;5044077;28;20393;-61
2022/10/02 06:53:19;;;;;;;87.68;82.88;;;11.80;99.90;;;;;;5047090;28;20396;-62
2022/10/02 06:56:06;;;;;;;90.77;85.73;;;11.80;99.90;;;;;;5047050;28;20506;-62
2022/10/02 06:58:51;;;;;;;88.22;83.32;;;11.90;99.90;;;;;;5045927;28;20405;-62
2022/10/02 07:01:50;;;;;;;86.55;81.50;;;11.90;99.90;;;;;;5048331;28;20662;-62
2022/10/02 07:04:53;;;;;;;71.70;67.70;;;11.90;99.90;;;;;;5046324;28;20416;-62
2022/10/02 07:07:41;;;;;;;74.03;70.10;;;11.90;99.90;;;;;;5047286;28;20397;-63
2022/10/02 07:10:15;;;;;;;69.82;65.90;;;12.00;99.90;;;;;;5046604;28;20738;-61
2022/10/02 07:12:56;;;;;;;77.07;72.80;;;12.00;99.90;;;;;;5045888;28;20377;-61
2022/10/02 07:15:47;;;;;;;79.77;75.20;;;12.00;99.90;;;;;;5043968;28;20442;-61
2022/10/02 07:18:58;;;;;;;77.72;73.35;;;12.00;99.90;;;;;;5043679;28;20416;-61
2022/10/02 07:21:52;;;;;;;88.43;83.22;;;12.00;99.90;;;;;;5040425;28;20423;-61
2022/10/02 07:24:48;;;;;;;82.30;77.65;;;12.10;99.90;;;;;;5041397;28;20780;-61
2022/10/02 07:27:27;;;;;;;81.85;77.25;;;12.10;99.90;;;;;;5037372;28;20801;-61
2022/10/02 07:30:07;;;;;;;86.38;81.47;;;12.20;99.90;;;;;;5036664;28;20447;-61
2022/10/02 07:32:50;;;;;;;84.30;79.70;;;12.20;99.90;;;;;;5035543;28;20385;-63
2022/10/02 07:35:27;;;;;;;84.20;79.45;;;12.30;99.90;;;;;;5034328;28;20385;-63
2022/10/02 07:38:07;;;;;;;85.63;80.75;;;12.40;99.90;;;;;;5034495;28;20516;-63
2022/10/02 07:40:58;;;;;;;94.10;88.80;;;12.30;99.90;;;;;;5033063;28;20704;-62
2022/10/02 07:43:55;;;;;;;107.43;101.35;;;12.30;99.90;;;;;;5033359;28;20693;-62
2022/10/02 07:46:31;;;;;;;143.10;134.85;;;12.20;99.90;;;;;;5032742;28;20393;-61
2022/10/02 07:49:01;;;;;;;151.07;142.17;;;12.00;99.90;;;;;;5032445;28;20717;-62
2022/10/02 07:51:45;;;;;;;151.18;143.10;;;11.90;99.90;;;;;;5030501;28;20871;-61
2022/10/02 07:54:46;;;;;;;165.80;156.68;;;12.00;99.90;;;;;;5027615;28;20444;-62
2022/10/02 07:57:25;;;;;;;152.73;144.30;;;12.00;99.90;;;;;;5030279;28;20818;-62
2022/10/02 08:00:01;;;;;;;142.88;134.88;;;12.00;99.90;;;;;;5029808;28;20635;-62
2022/10/02 08:02:43;;;;;;;137.35;129.95;;;12.00;99.90;;;;;;5032102;28;20658;-62
2022/10/02 08:05:26;;;;;;;150.23;142.13;;;12.00;99.90;;;;;;5035421;28;20381;-63
2022/10/02 08:07:57;;;;;;;147.32;139.20;;;12.10;99.90;;;;;;5037584;28;20389;-62
2022/10/02 08:10:27;;;;;;;145.07;137.25;;;12.10;99.90;;;;;;5039218;28;20572;-62
2022/10/02 08:13:22;;;;;;;145.52;137.52;;;12.10;99.90;;;;;;5039641;28;20634;-62
2022/10/02 08:15:52;;;;;;;140.30;132.87;;;12.10;99.90;;;;;;5039760;28;20484;-62
2022/10/02 08:18:45;;;;;;;132.98;125.75;;;12.20;99.90;;;;;;5036168;28;20436;-62
2022/10/02 08:21:15;;;;;;;139.35;131.50;;;12.20;99.90;;;;;;5035663;28;20872;-63
2022/10/02 08:24:12;;;;;;;143.63;135.60;;;12.30;99.90;;;;;;5038242;28;20604;-63
2022/10/02 08:26:48;;;;;;;140.13;132.73;;;12.40;99.90;;;;;;5039506;28;20389;-62
2022/10/02 08:29:19;;;;;;;138.95;131.63;;;12.50;99.90;;;;;;5038885;28;20488;-62
2022/10/02 08:31:45;;;;;;;130.27;122.85;;;12.60;99.90;;;;;;5040927;28;20828;-62
2022/10/02 08:34:16;;;;;;;130.25;123.03;;;12.70;99.90;;;;;;5043847;28;20381;-62
2022/10/02 08:36:54;;;;;;;124.22;117.28;;;12.70;99.90;;;;;;5042589;28;20418;-62
2022/10/02 08:39:44;;;;;;;123.30;116.43;;;12.70;99.90;;;;;;5041283;28;20955;-62
2022/10/02 08:42:46;;;;;;;136.23;128.35;;;12.60;99.90;;;;;;5039295;28;20428;-62
2022/10/02 08:45:33;;;;;;;131.95;124.70;;;12.50;99.90;;;;;;5041050;28;20681;-60
2022/10/02 08:48:48;;;;;;;147.00;139.00;;;12.40;99.90;;;;;;5042224;28;20674;-62
2022/10/02 08:51:35;;;;;;;141.37;133.87;;;12.40;99.90;;;;;;5036937;28;20408;-60
2022/10/02 08:54:31;;;;;;;144.60;136.77;;;12.30;99.90;;;;;;5036909;28;20398;-62
2022/10/02 08:57:51;;;;;;;149.77;141.80;;;12.30;99.90;;;;;;5037955;28;20401;-62
2022/10/02 09:00:39;;;;;;;157.48;148.75;;;12.30;99.90;;;;;;5012260;28;20616;-62
2022/10/02 09:03:28;;;;;;;148.48;140.60;;;12.30;99.90;;;;;;5037258;28;20577;-62
2022/10/02 09:06:12;;;;;;;161.77;152.83;;;12.40;99.90;;;;;;5037291;28;20463;-62
2022/10/02 09:09:12;;;;;;;154.27;146.00;;;12.40;99.90;;;;;;5038544;28;20496;-62
2022/10/02 09:11:57;;;;;;;148.90;140.95;;;12.30;99.90;;;;;;5042166;28;20381;-62
2022/10/02 09:14:43;;;;;;;155.25;146.57;;;12.40;99.90;;;;;;5039551;28;20728;-61
2022/10/02 09:17:11;;;;;;;159.57;150.80;;;12.50;99.90;;;;;;5036394;28;20401;-59
2022/10/02 09:20:14;;;;;;;131.33;124.17;;;12.60;99.90;;;;;;5039111;28;20385;-62
2022/10/02 09:23:14;;;;;;;144.32;136.30;;;12.70;99.90;;;;;;5035852;28;20558;-62
2022/10/02 09:26:06;;;;;;;145.45;137.00;;;12.70;99.90;;;;;;5035673;28;20648;-61
2022/10/02 09:28:53;;;;;;;145.32;137.30;;;12.70;99.90;;;;;;5037146;28;20413;-62
2022/10/02 09:31:52;;;;;;;158.47;149.80;;;12.70;99.90;;;;;;5037945;28;20924;-62
2022/10/02 09:34:42;;;;;;;150.40;141.93;;;12.60;99.90;;;;;;5041972;28;20393;-61
2022/10/02 09:37:23;;;;;;;147.15;139.07;;;12.60;99.90;;;;;;5040181;28;20636;-61
2022/10/02 09:40:08;;;;;;;147.13;139.02;;;12.70;99.90;;;;;;5039726;28;20792;-62
2022/10/02 09:43:02;;;;;;;141.48;133.52;;;12.70;99.90;;;;;;5038773;28;20381;-62
2022/10/02 09:45:57;;;;;;;140.70;132.60;;;12.90;99.90;;;;;;5045733;28;20472;-62
2022/10/02 09:49:10;;;;;;;146.32;138.20;;;13.00;99.90;;;;;;5030484;28;20420;-62
2022/10/02 09:52:00;;;;;;;126.13;119.20;;;13.10;99.90;;;;;;5024773;28;20409;-61
2022/10/02 09:54:56;;;;;;;139.02;131.38;;;13.10;99.90;;;;;;5049059;28;20440;-60
2022/10/02 09:57:41;;;;;;;126.20;118.82;;;13.10;99.90;;;;;;5046405;28;20409;-61
2022/10/02 10:00:24;;;;;;;125.72;118.70;;;13.10;99.90;;;;;;5045178;28;20381;-62
2022/10/02 10:03:09;;;;;;;128.65;121.45;;;13.10;99.90;;;;;;5043569;28;20393;-61
2022/10/02 10:06:02;;;;;;;104.38;98.60;;;13.00;99.90;;;;;;5042383;28;20709;-60
2022/10/02 10:08:56;;;;;;;107.97;101.82;;;13.00;99.90;;;;;;5041786;28;20397;-61
2022/10/02 10:11:37;;;;;;;107.55;101.28;;;13.00;99.90;;;;;;5041091;28;20480;-61
2022/10/02 10:14:12;;;;;;;91.50;86.15;;;13.10;99.90;;;;;;5041812;28;20476;-62
2022/10/02 10:16:55;;;;;;;102.72;96.80;;;13.20;99.90;;;;;;5043433;28;21022;-62
2022/10/02 10:19:21;;;;;;;103.18;97.38;;;13.30;99.90;;;;;;5036744;28;20392;-62
2022/10/02 10:22:11;;;;;;;93.43;87.95;;;13.50;99.90;;;;;;5034250;28;20393;-62
2022/10/02 10:25:09;;;;;;;81.00;76.22;;;13.80;99.90;;;;;;5036582;28;20763;-61
2022/10/02 10:28:01;;;;;;;77.28;72.95;;;14.10;99.90;;;;;;5034119;28;20447;-61
2022/10/02 10:30:46;;;;;;;70.50;66.70;;;14.30;99.90;;;;;;5036187;28;20412;-55
2022/10/02 10:33:17;;;;;;;80.93;76.63;;;14.50;99.90;;;;;;5035606;28;20381;-56
2022/10/02 10:36:06;;;;;;;95.88;90.82;;;14.90;99.90;;;;;;5033783;28;20401;-57
2022/10/02 10:38:44;;;;;;;97.65;92.35;;;14.80;99.90;;;;;;5038917;28;21076;-56
2022/10/02 10:41:41;;;;;;;83.97;79.03;;;15.00;99.90;;;;;;5037261;28;20443;-57
2022/10/02 10:44:30;;;;;;;88.00;83.07;;;15.00;99.90;;;;;;5037082;28;20381;-57
2022/10/02 10:47:17;;;;;;;88.20;83.17;;;15.20;99.90;;;;;;5037528;28;20479;-53
2022/10/02 10:49:58;;;;;;;76.93;72.18;;;15.40;99.90;;;;;;5038856;28;20389;-56
2022/10/02 10:52:29;;;;;;;77.93;73.22;;;15.40;99.90;;;;;;5040301;28;20504;-55
2022/10/02 10:55:05;;;;;;;75.03;70.32;;;15.40;99.90;;;;;;5041823;28;20390;-56
2022/10/02 10:57:31;;;;;;;74.38;69.25;;;15.40;99.90;;;;;;5036285;28;20401;-62
2022/10/02 11:00:16;;;;;;;74.20;69.47;;;15.40;99.90;;;;;;5034308;28;20408;-61
2022/10/02 11:02:57;;;;;;;70.00;65.45;;;15.60;99.90;;;;;;5031860;28;20649;-62
2022/10/02 11:05:45;;;;;;;77.07;72.50;;;15.60;99.90;;;;;;5028943;28;20611;-62
2022/10/02 11:09:02;;;;;;;66.45;62.22;;;15.80;99.90;;;;;;5028347;28;20408;-62
2022/10/02 11:11:54;;;;;;;74.63;69.82;;;15.90;99.90;;;;;;5004277;28;20444;-62
2022/10/02 11:14:54;;;;;;;86.05;81.05;;;15.80;99.90;;;;;;5024878;28;20699;-61
2022/10/02 11:17:57;;;;;;;69.07;64.57;;;15.90;99.90;;;;;;5028737;28;20403;-62
2022/10/02 11:20:23;;;;;;;70.20;65.27;;;15.90;99.90;;;;;;5036729;28;20380;-61
2022/10/02 11:23:07;;;;;;;64.10;60.07;;;15.70;99.90;;;;;;5036772;28;20373;-61
2022/10/02 11:26:07;;;;;;;67.27;62.93;;;15.70;99.90;;;;;;5038125;28;20824;-62
2022/10/02 11:28:50;;;;;;;71.53;66.90;;;16.10;99.90;;;;;;5037584;28;20477;-62
2022/10/02 11:32:01;;;;;;;62.20;58.00;;;16.20;99.90;;;;;;5036516;28;20521;-62
2022/10/02 11:35:02;;;;;;;64.57;60.10;;;15.90;99.90;;;;;;4994480;28;20395;-62
2022/10/02 11:37:45;;;;;;;59.78;55.85;;;15.70;99.90;;;;;;4933943;29;20414;-62
2022/10/02 11:40:37;;;;;;;53.90;50.13;;;15.60;99.90;;;;;;5023140;28;20748;-62
2022/10/02 11:43:12;;;;;;;66.30;62.08;;;15.60;99.90;;;;;;5035542;28;20920;-62
2022/10/02 11:46:00;;;;;;;61.97;57.73;;;15.50;99.90;;;;;;5033884;28;20378;-62
2022/10/02 11:48:34;;;;;;;67.10;62.65;;;15.70;99.90;;;;;;5033918;28;20377;-62
2022/10/02 11:51:09;;;;;;;59.13;55.33;;;16.10;99.90;;;;;;5033001;28;20397;-61
2022/10/02 11:53:53;;;;;;;60.60;56.60;;;16.50;99.90;;;;;;5031958;28;20735;-61
2022/10/02 11:56:24;;;;;;;59.73;55.93;;;16.50;99.90;;;;;;5032115;28;20517;-62
2022/10/02 11:59:02;;;;;;;55.78;52.25;;;16.40;99.90;;;;;;5031521;28;20624;-61
2022/10/02 12:01:52;;;;;;;63.23;59.07;;;16.40;99.90;;;;;;5032318;28;20381;-62
2022/10/02 12:04:37;;;;;;;50.97;47.40;;;16.40;99.90;;;;;;5031256;28;20628;-61
2022/10/02 12:07:22;;;;;;;54.83;51.20;;;16.50;99.90;;;;;;5028326;28;20405;-61
2022/10/02 12:10:31;;;;;;;72.90;68.13;;;16.50;99.90;;;;;;5033862;28;20492;-62
2022/10/02 12:13:27;;;;;;;70.63;66.20;;;16.30;99.90;;;;;;5034605;28;20393;-62
2022/10/02 12:16:05;;;;;;;65.97;61.77;;;16.60;99.90;;;;;;5030720;28;20385;-62
2022/10/02 12:19:01;;;;;;;66.47;62.13;;;17.00;99.90;;;;;;5031234;28;20467;-60
2022/10/02 12:27:50;;;;;;;63.47;59.45;;;17.30;99.90;;;;;;5026472;28;20399;-60
2022/10/02 12:30:26;;;;;;;72.00;67.38;;;17.40;99.90;;;;;;5026659;28;20401;-61
2022/10/02 12:33:08;;;;;;;63.80;59.10;;;17.80;99.90;;;;;;5028338;28;20727;-61
2022/10/02 12:36:07;;;;;;;66.80;62.30;;;17.80;99.90;;;;;;5029483;28;20401;-61
2022/10/02 12:39:14;;;;;;;74.82;69.68;;;17.90;99.90;;;;;;5016444;28;20566;-61
2022/10/02 12:42:02;;;;;;;64.97;60.80;;;17.90;99.90;;;;;;4973233;28;20965;-61
2022/10/02 12:45:07;;;;;;;69.43;64.60;;;17.90;99.90;;;;;;4975782;28;20462;-61
2022/10/02 12:48:05;;;;;;;75.67;70.67;;;17.90;99.90;;;;;;5028375;28;20488;-61
2022/10/02 12:50:55;;;;;;;58.85;54.83;;;17.90;99.90;;;;;;5014433;28;20451;-61
2022/10/02 12:53:43;;;;;;;58.40;54.20;;;18.10;99.90;;;;;;5034246;28;20953;-62
2022/10/02 12:56:33;;;;;;;60.53;56.63;;;18.10;99.90;;;;;;5037844;28;20764;-63
2022/10/02 12:59:07;;;;;;;55.67;51.67;;;18.30;99.90;;;;;;5038639;28;20504;-61
2022/10/02 13:02:05;;;;;;;61.83;57.75;;;18.40;99.90;;;;;;5040475;28;20389;-61
2022/10/02 13:04:48;;;;;;;66.45;62.28;;;18.70;99.90;;;;;;5038899;28;20381;-61
2022/10/02 13:07:32;;;;;;;56.10;52.30;;;18.50;99.90;;;;;;5036453;28;20908;-61
2022/10/02 13:10:18;;;;;;;60.53;56.20;;;18.50;99.90;;;;;;5032981;28;20407;-62
2022/10/02 13:12:51;;;;;;;64.03;59.45;;;18.10;99.90;;;;;;5029492;28;20401;-62
2022/10/02 13:15:34;;;;;;;59.83;55.42;;;18.00;99.90;;;;;;5027406;28;20397;-60
2022/10/02 13:18:06;;;;;;;64.43;59.75;;;17.60;99.90;;;;;;5026205;28;20462;-61
2022/10/02 13:20:38;;;;;;;67.50;62.90;;;17.20;99.90;;;;;;5027790;28;20964;-62
2022/10/02 13:23:30;;;;;;;55.78;51.97;;;17.00;99.90;;;;;;5024889;28;20389;-61
2022/10/02 13:26:25;;;;;;;61.83;57.58;;;16.80;99.90;;;;;;5032628;28;20393;-60
2022/10/02 13:29:08;;;;;;;52.42;48.88;;;16.70;99.90;;;;;;5028449;28;20420;-61
2022/10/02 13:31:43;;;;;;;61.15;56.67;;;17.30;99.90;;;;;;5040820;28;20480;-61
2022/10/02 13:34:25;;;;;;;50.40;46.72;;;17.60;99.90;;;;;;5039914;28;20413;-69
2022/10/02 13:37:12;;;;;;;54.75;50.72;;;17.20;99.90;;;;;;5039352;28;20401;-62
2022/10/02 13:40:19;;;;;;;52.30;48.35;;;17.00;99.90;;;;;;5035510;28;20386;-62
2022/10/02 13:43:08;;;;;;;47.33;43.83;;;16.90;99.90;;;;;;5027163;28;20378;-62